createdAt,value
2017-09-29T00:00:07.456Z,0
2017-09-29T00:01:08.879Z,0
2017-09-29T00:02:10.298Z,0
2017-09-29T00:03:11.731Z,0
2017-09-29T00:04:13.154Z,0
2017-09-29T00:05:14.579Z,0
2017-09-29T00:06:16.001Z,0
2017-09-29T00:07:17.418Z,0
2017-09-29T00:08:18.838Z,0
2017-09-29T00:09:20.256Z,0
2017-09-29T00:10:21.678Z,0
2017-09-29T00:11:23.103Z,0
2017-09-29T00:12:24.525Z,0
2017-09-29T00:13:25.944Z,0
2017-09-29T00:14:27.371Z,0
2017-09-29T00:15:28.785Z,0
2017-09-29T00:16:30.210Z,0
2017-09-29T00:17:31.672Z,0
2017-09-29T00:18:33.106Z,0
2017-09-29T00:19:34.536Z,0
2017-09-29T00:20:35.952Z,0
2017-09-29T00:21:37.383Z,0
2017-09-29T00:22:38.808Z,0
2017-09-29T00:23:40.230Z,0
2017-09-29T00:24:41.668Z,0
2017-09-29T00:25:43.084Z,0
2017-09-29T00:26:44.503Z,0
2017-09-29T00:27:45.933Z,0
2017-09-29T00:28:47.358Z,0
2017-09-29T00:29:48.774Z,0
2017-09-29T00:30:50.197Z,0
2017-09-29T00:31:51.626Z,0
2017-09-29T00:32:53.050Z,0
2017-09-29T00:33:54.468Z,0
2017-09-29T00:34:55.895Z,0
2017-09-29T00:35:57.318Z,0
2017-09-29T00:36:58.742Z,0
2017-09-29T00:38:00.194Z,0
2017-09-29T00:39:01.614Z,0
2017-09-29T00:40:03.028Z,0
2017-09-29T00:41:04.444Z,0
2017-09-29T00:42:05.859Z,0
2017-09-29T00:43:07.278Z,0
2017-09-29T00:44:08.710Z,0
2017-09-29T00:45:10.143Z,0
2017-09-29T00:46:11.569Z,0
2017-09-29T00:47:12.991Z,0
2017-09-29T00:48:14.413Z,0
2017-09-29T00:49:15.834Z,0
2017-09-29T00:50:17.268Z,0
2017-09-29T00:51:18.683Z,0
2017-09-29T00:52:20.111Z,0
2017-09-29T00:53:21.536Z,0
2017-09-29T00:54:22.958Z,0
2017-09-29T00:55:24.380Z,0
2017-09-29T00:56:25.796Z,0
2017-09-29T00:57:27.217Z,0
2017-09-29T00:58:28.644Z,0
2017-09-29T00:59:30.068Z,0
2017-09-29T01:00:31.499Z,0
2017-09-29T01:01:32.922Z,0
2017-09-29T01:02:34.363Z,0
2017-09-29T01:03:35.779Z,0
2017-09-29T01:04:37.205Z,0
2017-09-29T01:05:38.639Z,0
2017-09-29T01:06:40.058Z,0
2017-09-29T01:07:41.478Z,0
2017-09-29T01:08:42.895Z,0
2017-09-29T01:09:44.316Z,0
2017-09-29T01:10:45.732Z,0
2017-09-29T01:11:47.195Z,0
2017-09-29T01:12:48.611Z,0
2017-09-29T01:13:50.026Z,0
2017-09-29T01:14:51.448Z,0
2017-09-29T01:15:52.866Z,0
2017-09-29T01:16:54.287Z,0
2017-09-29T01:17:55.718Z,0
2017-09-29T01:18:57.147Z,0
2017-09-29T01:19:58.565Z,0
2017-09-29T01:20:59.997Z,0
2017-09-29T01:22:01.415Z,0
2017-09-29T01:23:02.848Z,0
2017-09-29T01:24:04.272Z,0
2017-09-29T01:25:05.701Z,0
2017-09-29T01:26:07.117Z,0
2017-09-29T01:27:08.536Z,0
2017-09-29T01:28:09.968Z,0
2017-09-29T01:29:11.387Z,0
2017-09-29T01:30:12.806Z,0
2017-09-29T01:31:14.224Z,0
2017-09-29T01:32:15.647Z,0
2017-09-29T01:33:17.084Z,0
2017-09-29T01:34:18.497Z,0
2017-09-29T01:35:19.915Z,0
2017-09-29T01:36:21.332Z,0
2017-09-29T01:37:22.750Z,0
2017-09-29T01:38:24.167Z,0
2017-09-29T01:39:25.595Z,0
2017-09-29T01:40:27.018Z,0
2017-09-29T01:41:28.441Z,0
2017-09-29T01:42:29.861Z,0
2017-09-29T01:43:31.293Z,0
2017-09-29T01:44:32.715Z,0
2017-09-29T01:45:34.140Z,0
2017-09-29T01:46:35.579Z,0
2017-09-29T01:47:37.000Z,0
2017-09-29T01:48:38.421Z,0
2017-09-29T01:49:39.846Z,0
2017-09-29T01:50:41.267Z,0
2017-09-29T01:51:42.688Z,0
2017-09-29T01:52:44.103Z,0
2017-09-29T01:53:45.522Z,0
2017-09-29T01:54:46.947Z,0
2017-09-29T01:55:48.370Z,0
2017-09-29T01:56:49.806Z,0
2017-09-29T01:57:51.226Z,0
2017-09-29T01:58:52.648Z,0
2017-09-29T01:59:54.089Z,0
2017-09-29T02:00:55.509Z,0
2017-09-29T02:01:56.930Z,0
2017-09-29T02:02:58.354Z,0
2017-09-29T02:03:59.772Z,0
2017-09-29T02:05:01.197Z,0
2017-09-29T02:06:02.624Z,0
2017-09-29T02:07:04.047Z,0
2017-09-29T02:08:05.469Z,0
2017-09-29T02:09:06.889Z,0
2017-09-29T02:10:08.307Z,0
2017-09-29T02:11:09.735Z,0
2017-09-29T02:12:11.167Z,0
2017-09-29T02:13:12.588Z,0
2017-09-29T02:14:14.005Z,0
2017-09-29T02:15:15.419Z,0
2017-09-29T02:16:16.847Z,0
2017-09-29T02:17:18.272Z,0
2017-09-29T02:18:19.729Z,0
2017-09-29T02:19:21.115Z,0
2017-09-29T02:20:22.533Z,0
2017-09-29T02:21:23.963Z,0
2017-09-29T02:22:25.387Z,0
2017-09-29T02:23:26.810Z,0
2017-09-29T02:24:28.233Z,0
2017-09-29T02:25:29.652Z,0
2017-09-29T02:26:31.078Z,0
2017-09-29T02:27:32.492Z,0
2017-09-29T02:28:33.913Z,0
2017-09-29T02:29:35.336Z,0
2017-09-29T02:30:36.754Z,0
2017-09-29T02:31:38.175Z,0
2017-09-29T02:32:39.599Z,0
2017-09-29T02:33:41.017Z,0
2017-09-29T02:34:42.440Z,0
2017-09-29T02:35:43.853Z,0
2017-09-29T02:36:45.269Z,0
2017-09-29T02:37:46.686Z,0
2017-09-29T02:38:48.113Z,0
2017-09-29T02:39:49.538Z,0
2017-09-29T02:40:50.962Z,0
2017-09-29T02:41:52.382Z,0
2017-09-29T02:42:53.807Z,0
2017-09-29T02:43:55.229Z,0
2017-09-29T02:44:56.647Z,0
2017-09-29T02:45:58.067Z,0
2017-09-29T02:46:59.531Z,0
2017-09-29T02:48:00.960Z,0
2017-09-29T02:49:02.385Z,0
2017-09-29T02:50:03.811Z,0
2017-09-29T02:51:05.231Z,0
2017-09-29T02:52:06.657Z,0
2017-09-29T02:53:08.079Z,0
2017-09-29T02:54:09.504Z,0
2017-09-29T02:55:10.922Z,0
2017-09-29T02:56:12.347Z,0
2017-09-29T02:57:13.762Z,0
2017-09-29T02:58:15.186Z,0
2017-09-29T02:59:16.612Z,0
2017-09-29T03:00:18.040Z,0
2017-09-29T03:01:19.461Z,0
2017-09-29T03:02:20.886Z,0
2017-09-29T03:03:22.319Z,0
2017-09-29T03:04:23.734Z,0
2017-09-29T03:05:25.160Z,0
2017-09-29T03:06:26.588Z,0
2017-09-29T03:07:28.009Z,0
2017-09-29T03:08:29.422Z,0
2017-09-29T03:09:30.845Z,0
2017-09-29T03:10:32.278Z,0
2017-09-29T03:11:33.702Z,0
2017-09-29T03:12:35.125Z,0
2017-09-29T03:13:36.548Z,0
2017-09-29T03:14:37.971Z,0
2017-09-29T03:15:39.390Z,0
2017-09-29T03:16:40.809Z,0
2017-09-29T03:17:42.234Z,0
2017-09-29T03:18:43.665Z,0
2017-09-29T03:19:45.086Z,0
2017-09-29T03:20:46.517Z,0
2017-09-29T03:21:47.952Z,0
2017-09-29T03:22:49.376Z,0
2017-09-29T03:23:50.810Z,0
2017-09-29T03:24:52.234Z,0
2017-09-29T03:25:53.650Z,0
2017-09-29T03:26:55.067Z,0
2017-09-29T03:27:56.487Z,0
2017-09-29T03:28:57.906Z,0
2017-09-29T03:29:59.330Z,0
2017-09-29T03:31:00.744Z,0
2017-09-29T03:32:02.165Z,0
2017-09-29T03:33:03.589Z,0
2017-09-29T03:34:05.009Z,0
2017-09-29T03:35:06.439Z,0
2017-09-29T03:36:07.926Z,0
2017-09-29T03:37:09.357Z,0
2017-09-29T03:38:10.779Z,0
2017-09-29T03:39:12.195Z,0
2017-09-29T03:40:13.615Z,0
2017-09-29T03:41:15.034Z,0
2017-09-29T03:42:16.453Z,0
2017-09-29T03:43:17.872Z,0
2017-09-29T03:44:19.296Z,0
2017-09-29T03:45:20.711Z,0
2017-09-29T03:46:22.128Z,0
2017-09-29T03:47:23.547Z,0
2017-09-29T03:48:24.977Z,0
2017-09-29T03:49:26.398Z,0
2017-09-29T03:50:27.817Z,0
2017-09-29T03:51:29.233Z,0
2017-09-29T03:52:30.657Z,0
2017-09-29T03:53:32.090Z,0
2017-09-29T03:54:33.509Z,0
2017-09-29T03:55:34.926Z,0
2017-09-29T03:56:36.346Z,0
2017-09-29T03:57:37.770Z,0
2017-09-29T03:58:39.193Z,0
2017-09-29T03:59:40.614Z,0
2017-09-29T04:00:42.039Z,0
2017-09-29T04:01:43.454Z,0
2017-09-29T04:02:44.877Z,0
2017-09-29T04:03:46.292Z,0
2017-09-29T04:04:47.713Z,0
2017-09-29T04:05:49.134Z,0
2017-09-29T04:06:50.556Z,0
2017-09-29T04:07:51.978Z,0
2017-09-29T04:08:53.399Z,0
2017-09-29T04:09:54.813Z,0
2017-09-29T04:10:56.231Z,0
2017-09-29T04:11:57.662Z,0
2017-09-29T04:12:59.085Z,0
2017-09-29T04:14:00.509Z,0
2017-09-29T04:15:01.927Z,0
2017-09-29T04:16:03.343Z,0
2017-09-29T04:17:04.771Z,0
2017-09-29T04:18:06.199Z,0
2017-09-29T04:19:07.620Z,0
2017-09-29T04:20:09.047Z,0
2017-09-29T04:21:10.464Z,0
2017-09-29T04:22:11.888Z,0
2017-09-29T04:23:13.311Z,0
2017-09-29T04:24:14.739Z,0
2017-09-29T04:25:16.160Z,0
2017-09-29T04:26:17.579Z,0
2017-09-29T04:27:18.997Z,0
2017-09-29T04:28:20.416Z,0
2017-09-29T04:29:21.836Z,0
2017-09-29T04:30:23.259Z,0
2017-09-29T04:31:24.690Z,0
2017-09-29T04:32:26.107Z,0
2017-09-29T04:33:27.530Z,0
2017-09-29T04:34:28.946Z,0
2017-09-29T04:35:30.364Z,0
2017-09-29T04:36:31.782Z,0
2017-09-29T04:37:33.204Z,0
2017-09-29T04:38:34.632Z,0
2017-09-29T04:39:36.050Z,0
2017-09-29T04:40:37.476Z,0
2017-09-29T04:41:38.899Z,0
2017-09-29T04:42:40.325Z,0
2017-09-29T04:43:41.747Z,0
2017-09-29T04:44:43.166Z,0
2017-09-29T04:45:44.589Z,0
2017-09-29T04:46:46.006Z,0
2017-09-29T04:47:47.429Z,0
2017-09-29T04:48:48.848Z,0
2017-09-29T04:49:50.275Z,0
2017-09-29T04:50:51.693Z,0
2017-09-29T04:51:53.114Z,0
2017-09-29T04:52:54.544Z,0
2017-09-29T04:53:55.966Z,0
2017-09-29T04:54:57.393Z,0
2017-09-29T04:55:58.817Z,0
2017-09-29T04:57:00.240Z,0
2017-09-29T04:58:01.656Z,0
2017-09-29T04:59:03.087Z,0
2017-09-29T05:00:04.516Z,0
2017-09-29T05:01:05.937Z,0
2017-09-29T05:02:07.357Z,0
2017-09-29T05:03:08.769Z,0
2017-09-29T05:04:10.201Z,0
2017-09-29T05:05:11.618Z,0
2017-09-29T05:06:13.044Z,0
2017-09-29T05:07:14.469Z,0
2017-09-29T05:08:15.893Z,0
2017-09-29T05:09:17.415Z,0
2017-09-29T05:10:18.837Z,0
2017-09-29T05:11:20.255Z,0
2017-09-29T05:12:21.678Z,0
2017-09-29T05:13:23.096Z,0
2017-09-29T05:14:24.518Z,0
2017-09-29T05:15:25.949Z,0
2017-09-29T05:16:27.374Z,0
2017-09-29T05:17:28.803Z,0
2017-09-29T05:18:30.219Z,0
2017-09-29T05:19:31.640Z,0
2017-09-29T05:20:33.068Z,0
2017-09-29T05:21:34.486Z,0
2017-09-29T05:22:35.906Z,0
2017-09-29T05:23:37.324Z,0
2017-09-29T05:24:38.755Z,0
2017-09-29T05:25:40.172Z,0
2017-09-29T05:26:41.598Z,0
2017-09-29T05:27:43.016Z,0
2017-09-29T05:28:44.436Z,0
2017-09-29T05:29:45.861Z,0
2017-09-29T05:30:47.287Z,0
2017-09-29T05:31:48.718Z,0
2017-09-29T05:32:50.144Z,0
2017-09-29T05:33:51.578Z,0
2017-09-29T05:34:52.994Z,0
2017-09-29T05:35:54.420Z,0
2017-09-29T05:36:55.840Z,0
2017-09-29T05:37:57.259Z,0
2017-09-29T05:38:58.673Z,0
2017-09-29T05:40:00.114Z,0
2017-09-29T05:41:01.545Z,0
2017-09-29T05:42:02.964Z,0
2017-09-29T05:43:04.388Z,0
2017-09-29T05:44:05.836Z,0
2017-09-29T05:45:07.229Z,0
2017-09-29T05:46:08.651Z,0
2017-09-29T05:47:10.081Z,0
2017-09-29T05:48:11.502Z,0
2017-09-29T05:49:12.924Z,0
2017-09-29T05:50:14.367Z,0
2017-09-29T05:51:15.785Z,0
2017-09-29T05:52:17.208Z,0
2017-09-29T05:53:18.634Z,0
2017-09-29T05:54:20.062Z,0
2017-09-29T05:55:21.484Z,0
2017-09-29T05:56:22.906Z,0
2017-09-29T05:57:24.328Z,0
2017-09-29T05:58:25.746Z,0
2017-09-29T05:59:27.175Z,0
2017-09-29T06:00:28.607Z,0
2017-09-29T06:01:30.049Z,0
2017-09-29T06:02:31.466Z,0
2017-09-29T06:03:32.890Z,0
2017-09-29T06:04:34.321Z,0
2017-09-29T06:05:35.745Z,0
2017-09-29T06:06:37.204Z,5
2017-09-29T06:07:38.622Z,5
2017-09-29T06:08:40.048Z,5
2017-09-29T06:09:41.465Z,5
2017-09-29T06:10:42.885Z,5
2017-09-29T06:11:44.304Z,5
2017-09-29T06:12:45.726Z,5
2017-09-29T06:13:47.152Z,5
2017-09-29T06:14:48.571Z,5
2017-09-29T06:15:49.989Z,10
2017-09-29T06:16:51.407Z,10
2017-09-29T06:17:52.821Z,10
2017-09-29T06:18:54.257Z,10
2017-09-29T06:19:55.690Z,10
2017-09-29T06:20:57.118Z,10
2017-09-29T06:21:58.538Z,10
2017-09-29T06:22:59.964Z,15
2017-09-29T06:24:01.391Z,15
2017-09-29T06:25:02.821Z,10
2017-09-29T06:26:04.248Z,10
2017-09-29T06:27:05.670Z,15
2017-09-29T06:28:07.082Z,15
2017-09-29T06:29:08.512Z,15
2017-09-29T06:30:09.935Z,15
2017-09-29T06:31:11.363Z,10
2017-09-29T06:32:12.792Z,10
2017-09-29T06:33:14.224Z,10
2017-09-29T06:34:15.645Z,10
2017-09-29T06:35:17.069Z,10
2017-09-29T06:36:18.489Z,10
2017-09-29T06:37:19.917Z,10
2017-09-29T06:38:21.330Z,10
2017-09-29T06:39:22.755Z,10
2017-09-29T06:40:24.181Z,10
2017-09-29T06:41:25.607Z,15
2017-09-29T06:42:27.032Z,15
2017-09-29T06:43:28.453Z,20
2017-09-29T06:44:29.881Z,20
2017-09-29T06:45:31.318Z,20
2017-09-29T06:46:32.741Z,20
2017-09-29T06:47:34.172Z,20
2017-09-29T06:48:35.587Z,20
2017-09-29T06:49:37.014Z,20
2017-09-29T06:50:38.448Z,20
2017-09-29T06:51:39.868Z,20
2017-09-29T06:52:41.336Z,20
2017-09-29T06:53:42.758Z,20
2017-09-29T06:54:44.201Z,25
2017-09-29T06:55:45.688Z,25
2017-09-29T06:56:47.115Z,25
2017-09-29T06:57:48.542Z,30
2017-09-29T06:58:49.976Z,30
2017-09-29T06:59:51.418Z,30
2017-09-29T07:00:52.841Z,30
2017-09-29T07:01:54.259Z,30
2017-09-29T07:02:55.689Z,30
2017-09-29T07:03:57.107Z,30
2017-09-29T07:04:58.527Z,30
2017-09-29T07:05:59.950Z,30
2017-09-29T07:07:01.377Z,30
2017-09-29T07:08:02.795Z,30
2017-09-29T07:09:04.220Z,30
2017-09-29T07:10:05.637Z,30
2017-09-29T07:11:07.059Z,35
2017-09-29T07:12:08.477Z,35
2017-09-29T07:13:09.912Z,35
2017-09-29T07:14:11.337Z,35
2017-09-29T07:15:12.760Z,30
2017-09-29T07:16:14.180Z,30
2017-09-29T07:17:15.609Z,30
2017-09-29T07:18:17.041Z,25
2017-09-29T07:19:18.473Z,25
2017-09-29T07:20:19.899Z,25
2017-09-29T07:21:21.320Z,30
2017-09-29T07:22:22.739Z,30
2017-09-29T07:23:24.172Z,30
2017-09-29T07:24:25.614Z,30
2017-09-29T07:25:27.032Z,35
2017-09-29T07:26:28.458Z,35
2017-09-29T07:27:29.891Z,35
2017-09-29T07:28:31.316Z,30
2017-09-29T07:29:32.746Z,30
2017-09-29T07:30:34.175Z,25
2017-09-29T07:31:35.602Z,25
2017-09-29T07:32:37.032Z,20
2017-09-29T07:33:38.452Z,20
2017-09-29T07:34:39.890Z,10
2017-09-29T07:35:41.314Z,15
2017-09-29T07:36:42.739Z,15
2017-09-29T07:37:44.159Z,15
2017-09-29T07:38:45.581Z,15
2017-09-29T07:39:47.004Z,20
2017-09-29T07:40:48.424Z,20
2017-09-29T07:41:49.842Z,20
2017-09-29T07:42:51.272Z,20
2017-09-29T07:43:52.704Z,20
2017-09-29T07:44:54.126Z,20
2017-09-29T07:45:55.554Z,25
2017-09-29T07:46:56.972Z,25
2017-09-29T07:47:58.413Z,25
2017-09-29T07:48:59.841Z,25
2017-09-29T07:50:01.270Z,30
2017-09-29T07:51:02.702Z,5
2017-09-29T07:52:04.883Z,10
2017-09-29T07:53:06.312Z,15
2017-09-29T07:54:07.745Z,40
2017-09-29T07:55:09.162Z,45
2017-09-29T07:56:10.592Z,55
2017-09-29T07:57:12.016Z,55
2017-09-29T07:58:13.446Z,60
2017-09-29T07:59:14.875Z,60
2017-09-29T08:00:16.313Z,60
2017-09-29T08:01:17.731Z,60
2017-09-29T08:02:19.161Z,60
2017-09-29T08:03:20.594Z,60
2017-09-29T08:04:22.023Z,60
2017-09-29T08:05:23.442Z,60
2017-09-29T08:06:24.871Z,60
2017-09-29T08:07:26.293Z,65
2017-09-29T08:08:27.726Z,65
2017-09-29T08:09:29.143Z,65
2017-09-29T08:10:30.568Z,65
2017-09-29T08:11:31.988Z,65
2017-09-29T08:12:33.422Z,65
2017-09-29T08:13:34.852Z,60
2017-09-29T08:14:36.277Z,60
2017-09-29T08:15:37.705Z,60
2017-09-29T08:16:39.150Z,60
2017-09-29T08:17:40.576Z,60
2017-09-29T08:18:42.004Z,65
2017-09-29T08:19:43.440Z,65
2017-09-29T08:20:44.864Z,65
2017-09-29T08:21:46.294Z,65
2017-09-29T08:22:47.719Z,65
2017-09-29T08:23:49.157Z,65
2017-09-29T08:24:50.584Z,70
2017-09-29T08:25:52.001Z,65
2017-09-29T08:26:53.433Z,70
2017-09-29T08:27:54.860Z,70
2017-09-29T08:28:56.293Z,75
2017-09-29T08:29:57.718Z,80
2017-09-29T08:30:59.156Z,80
2017-09-29T08:32:00.583Z,85
2017-09-29T08:33:02.007Z,85
2017-09-29T08:34:03.654Z,80
2017-09-29T08:35:04.938Z,80
2017-09-29T08:36:06.369Z,80
2017-09-29T08:37:07.796Z,80
2017-09-29T08:38:09.217Z,75
2017-09-29T08:39:10.642Z,75
2017-09-29T08:40:12.083Z,75
2017-09-29T08:41:13.507Z,80
2017-09-29T08:42:14.933Z,80
2017-09-29T08:43:16.363Z,85
2017-09-29T08:44:17.793Z,90
2017-09-29T08:45:19.225Z,100
2017-09-29T08:46:20.651Z,110
2017-09-29T08:47:22.279Z,105
2017-09-29T08:48:23.699Z,100
2017-09-29T08:49:25.179Z,115
2017-09-29T08:50:26.616Z,110
2017-09-29T08:51:28.218Z,110
2017-09-29T08:52:29.833Z,110
2017-09-29T08:53:31.559Z,100
2017-09-29T08:54:33.272Z,100
2017-09-29T08:55:34.696Z,105
2017-09-29T08:56:36.119Z,110
2017-09-29T08:57:37.552Z,115
2017-09-29T08:58:38.984Z,110
2017-09-29T08:59:40.571Z,105
2017-09-29T09:00:41.971Z,105
2017-09-29T09:01:43.399Z,100
2017-09-29T09:02:44.831Z,110
2017-09-29T09:03:46.259Z,110
2017-09-29T09:04:47.680Z,110
2017-09-29T09:05:49.102Z,105
2017-09-29T09:06:50.538Z,105
2017-09-29T09:07:52.009Z,105
2017-09-29T09:08:53.680Z,105
2017-09-29T09:09:55.101Z,110
2017-09-29T09:10:56.533Z,105
2017-09-29T09:11:57.976Z,110
2017-09-29T09:12:59.400Z,110
2017-09-29T09:14:01.186Z,110
2017-09-29T09:15:02.617Z,100
2017-09-29T09:16:04.044Z,115
2017-09-29T09:17:05.485Z,115
2017-09-29T09:18:06.947Z,115
2017-09-29T09:19:08.381Z,115
2017-09-29T09:20:09.829Z,120
2017-09-29T09:21:11.257Z,130
2017-09-29T09:22:12.684Z,135
2017-09-29T09:23:14.115Z,145
2017-09-29T09:24:15.537Z,135
2017-09-29T09:25:16.966Z,105
2017-09-29T09:26:18.403Z,110
2017-09-29T09:27:19.843Z,125
2017-09-29T09:28:21.270Z,150
2017-09-29T09:29:22.726Z,145
2017-09-29T09:30:24.144Z,140
2017-09-29T09:31:25.579Z,145
2017-09-29T09:32:26.999Z,135
2017-09-29T09:33:28.485Z,125
2017-09-29T09:34:29.909Z,120
2017-09-29T09:35:31.347Z,130
2017-09-29T09:36:32.773Z,140
2017-09-29T09:37:34.198Z,155
2017-09-29T09:38:35.686Z,165
2017-09-29T09:39:37.125Z,175
2017-09-29T09:40:38.546Z,185
2017-09-29T09:41:39.981Z,190
2017-09-29T09:42:41.412Z,175
2017-09-29T09:43:42.850Z,160
2017-09-29T09:44:44.275Z,140
2017-09-29T09:45:45.712Z,130
2017-09-29T09:46:47.140Z,140
2017-09-29T09:47:48.570Z,95
2017-09-29T09:48:50.166Z,90
2017-09-29T09:49:51.602Z,80
2017-09-29T09:50:53.028Z,105
2017-09-29T09:51:54.468Z,110
2017-09-29T09:52:55.902Z,105
2017-09-29T09:53:57.348Z,95
2017-09-29T09:54:58.785Z,100
2017-09-29T09:56:00.218Z,95
2017-09-29T09:57:01.651Z,90
2017-09-29T09:58:03.093Z,90
2017-09-29T09:59:04.519Z,90
2017-09-29T10:00:05.964Z,170
2017-09-29T10:01:07.389Z,165
2017-09-29T10:02:08.825Z,145
2017-09-29T10:03:10.254Z,160
2017-09-29T10:04:11.677Z,155
2017-09-29T10:05:13.105Z,160
2017-09-29T10:06:14.527Z,170
2017-09-29T10:07:15.953Z,170
2017-09-29T10:08:17.394Z,175
2017-09-29T10:09:18.820Z,180
2017-09-29T10:10:20.255Z,175
2017-09-29T10:11:21.680Z,165
2017-09-29T10:12:23.110Z,175
2017-09-29T10:13:24.542Z,170
2017-09-29T10:14:25.974Z,160
2017-09-29T10:15:27.406Z,160
2017-09-29T10:16:28.832Z,165
2017-09-29T10:17:30.261Z,160
2017-09-29T10:18:31.701Z,165
2017-09-29T10:19:33.133Z,170
2017-09-29T10:20:34.565Z,175
2017-09-29T10:21:35.985Z,180
2017-09-29T10:22:37.457Z,180
2017-09-29T10:23:38.886Z,180
2017-09-29T10:24:40.321Z,185
2017-09-29T10:25:41.760Z,185
2017-09-29T10:26:43.198Z,190
2017-09-29T10:27:44.625Z,170
2017-09-29T10:28:46.057Z,195
2017-09-29T10:29:47.527Z,200
2017-09-29T10:30:48.965Z,205
2017-09-29T10:31:50.392Z,215
2017-09-29T10:32:51.829Z,210
2017-09-29T10:33:53.264Z,210
2017-09-29T10:34:54.696Z,210
2017-09-29T10:35:56.130Z,200
2017-09-29T10:36:57.582Z,195
2017-09-29T10:37:59.020Z,195
2017-09-29T10:39:00.461Z,185
2017-09-29T10:40:01.901Z,185
2017-09-29T10:41:03.330Z,175
2017-09-29T10:42:04.769Z,165
2017-09-29T10:43:06.221Z,170
2017-09-29T10:44:07.671Z,175
2017-09-29T10:45:09.085Z,180
2017-09-29T10:46:10.508Z,180
2017-09-29T10:47:11.941Z,175
2017-09-29T10:48:13.413Z,180
2017-09-29T10:49:14.844Z,190
2017-09-29T10:50:16.279Z,135
2017-09-29T10:51:17.711Z,205
2017-09-29T10:52:19.140Z,225
2017-09-29T10:53:20.591Z,230
2017-09-29T10:54:22.162Z,245
2017-09-29T10:55:23.603Z,260
2017-09-29T10:56:25.032Z,265
2017-09-29T10:57:26.462Z,275
2017-09-29T10:58:27.881Z,275
2017-09-29T10:59:29.322Z,275
2017-09-29T11:00:30.748Z,255
2017-09-29T11:01:32.199Z,245
2017-09-29T11:02:33.633Z,240
2017-09-29T11:03:35.065Z,240
2017-09-29T11:04:36.495Z,230
2017-09-29T11:05:37.927Z,215
2017-09-29T11:06:39.368Z,205
2017-09-29T11:07:40.797Z,200
2017-09-29T11:08:42.233Z,215
2017-09-29T11:09:43.669Z,240
2017-09-29T11:10:45.105Z,255
2017-09-29T11:11:46.534Z,265
2017-09-29T11:12:47.959Z,280
2017-09-29T11:13:49.393Z,295
2017-09-29T11:14:50.821Z,240
2017-09-29T11:15:52.271Z,300
2017-09-29T11:16:53.700Z,300
2017-09-29T11:17:55.127Z,330
2017-09-29T11:18:56.552Z,340
2017-09-29T11:19:57.988Z,335
2017-09-29T11:20:59.414Z,315
2017-09-29T11:22:00.843Z,295
2017-09-29T11:23:02.281Z,300
2017-09-29T11:24:03.723Z,280
2017-09-29T11:25:05.192Z,250
2017-09-29T11:26:06.611Z,235
2017-09-29T11:27:08.066Z,235
2017-09-29T11:28:09.506Z,235
2017-09-29T11:29:10.946Z,245
2017-09-29T11:30:12.398Z,245
2017-09-29T11:31:13.823Z,230
2017-09-29T11:32:15.252Z,240
2017-09-29T11:33:16.704Z,250
2017-09-29T11:34:18.138Z,255
2017-09-29T11:35:19.575Z,260
2017-09-29T11:36:21.010Z,260
2017-09-29T11:37:22.451Z,265
2017-09-29T11:38:23.887Z,280
2017-09-29T11:39:25.327Z,305
2017-09-29T11:40:26.765Z,350
2017-09-29T11:41:28.204Z,305
2017-09-29T11:42:29.634Z,310
2017-09-29T11:43:31.067Z,315
2017-09-29T11:44:32.509Z,325
2017-09-29T11:45:33.946Z,360
2017-09-29T11:46:35.375Z,405
2017-09-29T11:47:36.814Z,470
2017-09-29T11:48:38.245Z,490
2017-09-29T11:49:39.681Z,485
2017-09-29T11:50:41.110Z,490
2017-09-29T11:51:42.551Z,480
2017-09-29T11:52:44.535Z,480
2017-09-29T11:53:45.975Z,515
2017-09-29T11:54:47.411Z,525
2017-09-29T11:55:48.844Z,570
2017-09-29T11:56:50.288Z,570
2017-09-29T11:57:51.721Z,560
2017-09-29T11:58:53.166Z,555
2017-09-29T11:59:54.598Z,545
2017-09-29T12:00:56.028Z,545
2017-09-29T12:01:57.480Z,535
2017-09-29T12:02:58.905Z,525
2017-09-29T12:04:00.331Z,535
2017-09-29T12:05:01.830Z,535
2017-09-29T12:06:03.261Z,535
2017-09-29T12:07:04.692Z,540
2017-09-29T12:08:06.129Z,570
2017-09-29T12:09:07.555Z,680
2017-09-29T12:10:08.985Z,610
2017-09-29T12:11:10.425Z,515
2017-09-29T12:12:11.864Z,530
2017-09-29T12:13:13.309Z,610
2017-09-29T12:14:14.747Z,585
2017-09-29T12:15:16.191Z,610
2017-09-29T12:16:17.693Z,530
2017-09-29T12:17:19.120Z,565
2017-09-29T12:18:20.563Z,555
2017-09-29T12:19:21.998Z,460
2017-09-29T12:20:23.430Z,495
2017-09-29T12:21:24.862Z,470
2017-09-29T12:22:26.292Z,535
2017-09-29T12:23:27.794Z,560
2017-09-29T12:24:29.238Z,545
2017-09-29T12:25:30.683Z,325
2017-09-29T12:26:32.113Z,595
2017-09-29T12:27:33.551Z,450
2017-09-29T12:28:34.994Z,580
2017-09-29T12:29:36.425Z,340
2017-09-29T12:30:37.863Z,560
2017-09-29T12:31:39.310Z,580
2017-09-29T12:32:40.747Z,610
2017-09-29T12:33:42.180Z,605
2017-09-29T12:34:43.616Z,645
2017-09-29T12:35:45.057Z,555
2017-09-29T12:36:46.494Z,680
2017-09-29T12:37:47.960Z,540
2017-09-29T12:38:49.480Z,325
2017-09-29T12:39:50.915Z,355
2017-09-29T12:40:52.353Z,375
2017-09-29T12:41:53.784Z,290
2017-09-29T12:42:55.227Z,320
2017-09-29T12:43:56.660Z,390
2017-09-29T12:44:58.094Z,345
2017-09-29T12:45:59.520Z,335
2017-09-29T12:47:00.960Z,535
2017-09-29T12:48:02.394Z,1440
2017-09-29T12:49:03.823Z,1125
2017-09-29T12:50:05.261Z,1180
2017-09-29T12:51:06.691Z,1315
2017-09-29T12:52:08.133Z,920
2017-09-29T12:53:09.665Z,600
2017-09-29T12:54:11.101Z,610
2017-09-29T12:55:12.552Z,1220
2017-09-29T12:56:13.986Z,1315
2017-09-29T12:57:15.437Z,1260
2017-09-29T12:58:16.864Z,1220
2017-09-29T12:59:18.307Z,1415
2017-09-29T13:00:19.771Z,1180
2017-09-29T13:01:21.219Z,1290
2017-09-29T13:02:22.658Z,1315
2017-09-29T13:03:24.087Z,1005
2017-09-29T13:04:25.523Z,1040
2017-09-29T13:05:26.963Z,960
2017-09-29T13:06:28.399Z,970
2017-09-29T13:07:29.829Z,985
2017-09-29T13:08:31.283Z,885
2017-09-29T13:09:32.709Z,955
2017-09-29T13:10:34.175Z,1025
2017-09-29T13:11:35.657Z,1050
2017-09-29T13:12:37.086Z,1050
2017-09-29T13:13:38.519Z,1005
2017-09-29T13:14:39.975Z,1030
2017-09-29T13:15:41.410Z,1000
2017-09-29T13:16:42.855Z,1070
2017-09-29T13:17:44.288Z,1150
2017-09-29T13:18:45.745Z,1085
2017-09-29T13:19:47.187Z,985
2017-09-29T13:20:48.617Z,955
2017-09-29T13:21:50.098Z,1020
2017-09-29T13:22:51.535Z,1050
2017-09-29T13:23:52.980Z,1045
2017-09-29T13:24:54.417Z,1090
2017-09-29T13:25:55.925Z,1210
2017-09-29T13:26:57.351Z,1405
2017-09-29T13:27:58.784Z,1465
2017-09-29T13:29:00.223Z,1600
2017-09-29T13:30:01.672Z,1570
2017-09-29T13:31:03.110Z,1555
2017-09-29T13:32:04.547Z,1645
2017-09-29T13:33:05.975Z,1650
2017-09-29T13:34:07.427Z,1650
2017-09-29T13:35:08.865Z,1620
2017-09-29T13:36:10.328Z,1540
2017-09-29T13:37:11.782Z,1310
2017-09-29T13:38:13.232Z,1205
2017-09-29T13:39:14.674Z,1070
2017-09-29T13:40:16.118Z,935
2017-09-29T13:41:17.556Z,680
2017-09-29T13:42:18.991Z,500
2017-09-29T13:43:20.422Z,410
2017-09-29T13:44:22.053Z,350
2017-09-29T13:45:23.482Z,360
2017-09-29T13:46:24.920Z,380
2017-09-29T13:47:26.371Z,335
2017-09-29T13:48:27.807Z,345
2017-09-29T13:49:29.239Z,320
2017-09-29T13:50:30.687Z,315
2017-09-29T13:51:32.122Z,315
2017-09-29T13:52:33.563Z,295
2017-09-29T13:53:35.011Z,265
2017-09-29T13:54:36.441Z,235
2017-09-29T13:55:37.883Z,245
2017-09-29T13:56:39.308Z,245
2017-09-29T13:57:40.747Z,240
2017-09-29T13:58:42.194Z,230
2017-09-29T13:59:43.637Z,235
2017-09-29T14:00:45.095Z,230
2017-09-29T14:01:46.529Z,230
2017-09-29T14:02:47.960Z,225
2017-09-29T14:03:49.388Z,225
2017-09-29T14:04:50.833Z,220
2017-09-29T14:05:52.264Z,220
2017-09-29T14:06:53.695Z,215
2017-09-29T14:07:55.142Z,210
2017-09-29T14:08:56.578Z,205
2017-09-29T14:09:58.009Z,200
2017-09-29T14:10:59.437Z,195
2017-09-29T14:12:00.871Z,195
2017-09-29T14:13:02.305Z,190
2017-09-29T14:14:03.737Z,190
2017-09-29T14:15:05.174Z,185
2017-09-29T14:16:06.616Z,180
2017-09-29T14:17:08.065Z,175
2017-09-29T14:18:09.524Z,175
2017-09-29T14:19:10.972Z,170
2017-09-29T14:20:12.412Z,165
2017-09-29T14:21:13.844Z,165
2017-09-29T14:22:15.293Z,160
2017-09-29T14:23:16.724Z,160
2017-09-29T14:24:18.165Z,155
2017-09-29T14:25:19.612Z,155
2017-09-29T14:26:21.041Z,150
2017-09-29T14:27:22.472Z,150
2017-09-29T14:28:23.960Z,150
2017-09-29T14:29:25.438Z,145
2017-09-29T14:30:26.877Z,145
2017-09-29T14:31:28.314Z,140
2017-09-29T14:32:29.754Z,140
2017-09-29T14:33:31.194Z,140
2017-09-29T14:34:32.631Z,135
2017-09-29T14:35:34.075Z,135